createdAt,value
2023-01-18T00:00:32.785Z,100412.34
2023-01-18T00:03:00.382Z,100411.02
2023-01-18T00:05:27.860Z,100419.67
2023-01-18T00:07:55.186Z,100420.09
2023-01-18T00:10:22.844Z,100433.84
2023-01-18T00:12:50.192Z,100425.24
2023-01-18T00:15:17.796Z,100425.59
2023-01-18T00:17:51.805Z,100437.88
2023-01-18T00:20:21.181Z,100427.80
2023-01-18T00:22:48.687Z,100432.84
2023-01-18T00:25:15.975Z,100431.09
2023-01-18T00:27:50.725Z,100438.19
2023-01-18T00:30:20.852Z,100439.55
2023-01-18T00:32:48.781Z,100438.57
2023-01-18T00:35:16.331Z,100434.31
2023-01-18T00:37:45.363Z,100438.35
2023-01-18T00:40:12.733Z,100441.65
2023-01-18T00:42:58.959Z,100441.84
2023-01-18T00:45:26.566Z,100439.59
2023-01-18T00:47:53.835Z,100440.34
2023-01-18T00:50:22.569Z,100444.86
2023-01-18T00:52:50.362Z,100446.45
2023-01-18T00:55:17.910Z,100448.19
2023-01-18T00:57:45.084Z,100447.75
2023-01-18T01:00:15.563Z,100449.45
2023-01-18T01:02:42.962Z,100454.66
2023-01-18T01:05:37.979Z,100449.52
2023-01-18T01:08:06.167Z,100447.30
2023-01-18T01:10:34.476Z,100449.47
2023-01-18T01:13:20.453Z,100454.93
2023-01-18T01:16:06.490Z,100456.16
2023-01-18T01:18:52.482Z,100455.95
2023-01-18T01:21:38.260Z,100454.17
2023-01-18T01:24:24.686Z,100452.26
2023-01-18T01:26:52.199Z,100453.45
2023-01-18T01:29:19.360Z,100454.95
2023-01-18T01:31:46.607Z,100454.27
2023-01-18T01:34:14.434Z,100452.19
2023-01-18T01:36:41.567Z,100454.56
2023-01-18T01:39:11.261Z,100452.27
2023-01-18T01:41:38.505Z,100452.14
2023-01-18T01:44:17.977Z,100454.45
2023-01-18T01:46:49.174Z,100459.70
2023-01-18T01:49:17.963Z,100455.97
2023-01-18T01:51:51.965Z,100454.93
2023-01-18T01:54:24.066Z,100460.10
2023-01-18T01:56:52.516Z,100451.30
2023-01-18T01:59:20.327Z,100450.67
2023-01-18T02:01:47.954Z,100454.33
2023-01-18T02:04:15.613Z,100457.86
2023-01-18T02:06:42.875Z,100452.34
2023-01-18T02:09:12.624Z,100447.54
2023-01-18T02:11:40.068Z,100442.42
2023-01-18T02:14:09.475Z,100443.38
2023-01-18T02:17:05.292Z,100440.91
2023-01-18T02:20:11.817Z,100436.80
2023-01-18T02:23:01.283Z,100435.25
2023-01-18T02:25:31.515Z,100441.89
2023-01-18T02:28:18.634Z,100441.73
2023-01-18T02:31:18.848Z,100443.59
2023-01-18T02:34:07.086Z,100441.52
2023-01-18T02:36:57.559Z,100441.65
2023-01-18T02:39:32.075Z,100439.39
2023-01-18T02:42:27.178Z,100439.38
2023-01-18T02:45:13.113Z,100440.63
2023-01-18T02:47:40.429Z,100440.09
2023-01-18T02:50:09.292Z,100436.32
2023-01-18T02:52:47.623Z,100436.66
2023-01-18T02:55:40.352Z,100428.87
2023-01-18T02:58:20.246Z,100436.00
2023-01-18T03:00:50.451Z,100433.98
2023-01-18T03:03:17.631Z,100436.21
2023-01-18T03:05:44.880Z,100447.11
2023-01-18T03:08:15.330Z,100451.77
2023-01-18T03:10:53.262Z,100446.12
2023-01-18T03:13:45.444Z,100450.44
2023-01-18T03:16:21.786Z,100446.79
2023-01-18T03:19:01.927Z,100446.70
2023-01-18T03:21:42.183Z,100450.20
2023-01-18T03:24:10.169Z,100450.52
2023-01-18T03:26:43.088Z,100446.80
2023-01-18T03:29:28.713Z,100440.22
2023-01-18T03:32:18.152Z,100442.78
2023-01-18T03:34:48.474Z,100446.45
2023-01-18T03:37:26.464Z,100451.67
2023-01-18T03:40:02.764Z,100451.70
2023-01-18T03:42:45.720Z,100458.45
2023-01-18T03:45:22.828Z,100463.01
2023-01-18T03:47:51.280Z,100468.37
2023-01-18T03:50:18.510Z,100458.20
2023-01-18T03:52:47.364Z,100462.25
2023-01-18T03:55:19.417Z,100460.95
2023-01-18T03:57:51.659Z,100461.66
2023-01-18T04:00:19.611Z,100465.20
2023-01-18T04:02:48.209Z,100463.82
2023-01-18T04:05:15.627Z,100467.08
2023-01-18T04:07:43.272Z,100468.06
2023-01-18T04:10:11.359Z,100466.55
2023-01-18T04:12:38.559Z,100469.76
2023-01-18T04:15:06.672Z,100460.85
2023-01-18T04:17:33.949Z,100465.39
2023-01-18T04:20:01.234Z,100471.02
2023-01-18T04:22:28.398Z,100473.67
2023-01-18T04:24:55.913Z,100466.16
2023-01-18T04:27:25.303Z,100474.86
2023-01-18T04:29:52.948Z,100469.56
2023-01-18T04:32:20.758Z,100472.80
2023-01-18T04:34:48.310Z,100478.73
2023-01-18T04:37:15.639Z,100474.61
2023-01-18T04:39:42.919Z,100472.69
2023-01-18T04:42:10.428Z,100478.17
2023-01-18T04:44:37.743Z,100475.87
2023-01-18T04:47:04.982Z,100475.63
2023-01-18T04:49:32.444Z,100478.05
2023-01-18T04:51:59.649Z,100481.33
2023-01-18T04:54:26.985Z,100481.80
2023-01-18T04:56:54.551Z,100475.32
2023-01-18T04:59:21.946Z,100486.98
2023-01-18T05:01:49.471Z,100474.18
2023-01-18T05:04:17.032Z,100479.45
2023-01-18T05:06:44.850Z,100476.30
2023-01-18T05:09:12.727Z,100474.88
2023-01-18T05:11:40.055Z,100478.59
2023-01-18T05:14:07.252Z,100483.38
2023-01-18T05:16:34.629Z,100480.38
2023-01-18T05:19:01.963Z,100485.45
2023-01-18T05:21:29.249Z,100482.22
2023-01-18T05:23:56.924Z,100486.36
2023-01-18T05:26:24.567Z,100483.72
2023-01-18T05:28:56.740Z,100485.27
2023-01-18T05:31:24.132Z,100490.30
2023-01-18T05:33:51.372Z,100492.97
2023-01-18T05:36:18.800Z,100500.98
2023-01-18T05:38:46.867Z,100499.23
2023-01-18T05:41:14.052Z,100508.77
2023-01-18T05:43:41.434Z,100500.60
2023-01-18T05:46:08.774Z,100495.11
2023-01-18T05:48:36.179Z,100502.35
2023-01-18T05:51:09.029Z,100508.50
2023-01-18T05:53:36.178Z,100512.04
2023-01-18T05:56:05.543Z,100520.17
2023-01-18T05:58:32.725Z,100521.46
2023-01-18T06:01:00.221Z,100522.77
2023-01-18T06:03:27.885Z,100521.86
2023-01-18T06:05:55.073Z,100522.48
2023-01-18T06:08:22.347Z,100537.47
2023-01-18T06:10:54.585Z,100533.44
2023-01-18T06:13:25.615Z,100531.17
2023-01-18T06:15:54.955Z,100510.92
2023-01-18T06:18:22.664Z,100511.81
2023-01-18T06:20:49.967Z,100519.55
2023-01-18T06:23:17.153Z,100511.58
2023-01-18T06:25:44.576Z,100520.39
2023-01-18T06:28:11.842Z,100520.55
2023-01-18T06:30:39.150Z,100523.79
2023-01-18T06:33:07.560Z,100533.05
2023-01-18T06:35:34.910Z,100522.13
2023-01-18T06:38:03.482Z,100524.44
2023-01-18T06:40:31.141Z,100523.27
2023-01-18T06:42:58.872Z,100535.38
2023-01-18T06:45:26.433Z,100542.18
2023-01-18T06:47:53.782Z,100524.01
2023-01-18T06:50:21.271Z,100522.59
2023-01-18T06:52:48.588Z,100529.44
2023-01-18T06:55:15.940Z,100530.70
2023-01-18T06:57:43.219Z,100536.45
2023-01-18T07:00:11.380Z,100531.69
2023-01-18T07:02:38.632Z,100537.92
2023-01-18T07:05:06.251Z,100531.08
2023-01-18T07:07:34.281Z,100526.12
2023-01-18T07:10:01.509Z,100533.30
2023-01-18T07:12:28.762Z,100529.30
2023-01-18T07:14:55.973Z,100535.81
2023-01-18T07:17:23.237Z,100539.77
2023-01-18T07:19:50.620Z,100533.30
2023-01-18T07:22:17.782Z,100533.10
2023-01-18T07:24:45.883Z,100526.75
2023-01-18T07:27:13.353Z,100533.27
2023-01-18T07:29:40.850Z,100529.00
2023-01-18T07:32:08.150Z,100530.00
2023-01-18T07:34:35.392Z,100530.53
2023-01-18T07:37:02.619Z,100529.76
2023-01-18T07:39:29.875Z,100528.40
2023-01-18T07:41:57.116Z,100525.43
2023-01-18T07:44:24.401Z,100531.08
2023-01-18T07:46:51.611Z,100534.18
2023-01-18T07:49:18.819Z,100533.09
2023-01-18T07:51:46.093Z,100537.66
2023-01-18T07:54:13.387Z,100532.80
2023-01-18T07:56:40.595Z,100535.86
2023-01-18T07:59:08.598Z,100537.96
2023-01-18T08:01:36.010Z,100538.04
2023-01-18T08:04:03.518Z,100542.52
2023-01-18T08:06:30.908Z,100543.58
2023-01-18T08:08:58.221Z,100545.52
2023-01-18T08:11:25.688Z,100548.05
2023-01-18T08:13:53.146Z,100545.41
2023-01-18T08:16:20.567Z,100541.95
2023-01-18T08:18:51.015Z,100539.94
2023-01-18T08:21:18.314Z,100547.63
2023-01-18T08:23:45.631Z,100553.25
2023-01-18T08:26:15.181Z,100546.73
2023-01-18T08:28:42.442Z,100539.02
2023-01-18T08:31:12.507Z,100541.77
2023-01-18T08:33:45.629Z,100542.54
2023-01-18T08:36:14.383Z,100540.27
2023-01-18T08:38:41.643Z,100544.97
2023-01-18T08:41:08.884Z,100541.08
2023-01-18T08:43:36.508Z,100534.16
2023-01-18T08:46:03.754Z,100544.85
2023-01-18T08:48:31.007Z,100555.95
2023-01-18T08:51:02.707Z,100544.93
2023-01-18T08:53:30.908Z,100529.61
2023-01-18T08:55:58.499Z,100531.38
2023-01-18T08:58:25.831Z,100526.61
2023-01-18T09:00:54.229Z,100525.02
2023-01-18T09:03:22.087Z,100519.81
2023-01-18T09:05:49.661Z,100516.79
2023-01-18T09:08:17.796Z,100522.17
2023-01-18T09:10:45.237Z,100523.33
2023-01-18T09:13:12.510Z,100528.91
2023-01-18T09:15:39.818Z,100516.93
2023-01-18T09:18:08.380Z,100533.22
2023-01-18T09:20:36.467Z,100528.38
2023-01-18T09:23:07.316Z,100527.84
2023-01-18T09:25:36.701Z,100533.41
2023-01-18T09:28:04.689Z,100531.23
2023-01-18T09:30:32.507Z,100529.05
2023-01-18T09:33:01.387Z,100537.87
2023-01-18T09:35:28.748Z,100546.42
2023-01-18T09:37:56.215Z,100546.86
2023-01-18T09:40:44.918Z,100544.94
2023-01-18T09:43:40.064Z,100540.01
2023-01-18T09:46:22.169Z,100540.67
2023-01-18T09:48:59.916Z,100534.38
2023-01-18T09:51:33.048Z,100540.83
2023-01-18T09:54:40.140Z,100538.23
2023-01-18T09:57:33.728Z,100538.18
2023-01-18T10:00:01.734Z,100534.11
2023-01-18T10:02:39.288Z,100538.94
2023-01-18T10:05:12.426Z,100531.31
2023-01-18T10:08:08.050Z,100539.05
2023-01-18T10:10:40.677Z,100537.71
2023-01-18T10:13:17.251Z,100530.91
2023-01-18T10:15:44.740Z,100526.34
2023-01-18T10:18:12.024Z,100518.95
2023-01-18T10:20:43.710Z,100521.83
2023-01-18T10:23:22.245Z,100523.55
2023-01-18T10:25:56.565Z,100516.02
2023-01-18T10:28:47.913Z,100515.48
2023-01-18T10:31:40.202Z,100518.17
2023-01-18T10:34:26.658Z,100525.92
2023-01-18T10:37:14.997Z,100515.60
2023-01-18T10:39:51.449Z,100511.31
2023-01-18T10:42:57.007Z,100512.73
2023-01-18T10:45:26.588Z,100506.13
2023-01-18T10:47:55.193Z,100499.52
2023-01-18T10:50:40.237Z,100503.81
2023-01-18T10:53:25.079Z,100501.63
2023-01-18T10:56:00.454Z,100504.24
2023-01-18T10:58:58.115Z,100504.30
2023-01-18T11:01:55.403Z,100510.02
2023-01-18T11:04:27.999Z,100497.52
2023-01-18T11:06:57.050Z,100495.93
2023-01-18T11:09:48.763Z,100491.33
2023-01-18T11:12:34.333Z,100494.84
2023-01-18T11:15:14.150Z,100492.73
2023-01-18T11:17:58.176Z,100498.13
2023-01-18T11:20:30.335Z,100503.27
2023-01-18T11:23:03.528Z,100503.25
2023-01-18T11:26:09.471Z,100496.11
2023-01-18T11:28:39.852Z,100502.48
2023-01-18T11:31:20.454Z,100501.89
2023-01-18T11:33:57.685Z,100497.20
2023-01-18T11:36:46.571Z,100501.01
2023-01-18T11:39:25.050Z,100508.58
2023-01-18T11:42:14.185Z,100501.71
2023-01-18T11:45:19.250Z,100504.46
2023-01-18T11:48:17.933Z,100498.45
2023-01-18T11:50:54.354Z,100492.40
2023-01-18T11:53:21.862Z,100495.07
2023-01-18T11:56:06.596Z,100488.82
2023-01-18T11:58:35.263Z,100490.29
2023-01-18T12:01:09.085Z,100490.91
2023-01-18T12:03:56.497Z,100490.36
2023-01-18T12:06:27.530Z,100488.23
2023-01-18T12:09:04.165Z,100487.22
2023-01-18T12:11:37.558Z,100485.27
2023-01-18T12:14:30.408Z,100478.21
2023-01-18T12:17:35.135Z,100481.45
2023-01-18T12:20:44.269Z,100478.41
2023-01-18T12:23:42.688Z,100478.64
2023-01-18T12:26:31.347Z,100476.52
2023-01-18T12:29:01.719Z,100481.02
2023-01-18T12:32:02.943Z,100475.31
2023-01-18T12:34:33.249Z,100475.90
2023-01-18T12:37:22.020Z,100476.17
2023-01-18T12:39:58.791Z,100474.33
2023-01-18T12:42:49.741Z,100477.59
2023-01-18T12:45:28.120Z,100473.87
2023-01-18T12:48:00.288Z,100478.74
2023-01-18T12:50:29.911Z,100479.41
2023-01-18T12:53:02.923Z,100482.08
2023-01-18T12:55:31.837Z,100483.02
2023-01-18T12:58:00.442Z,100478.74
2023-01-18T13:00:35.642Z,100487.78
2023-01-18T13:03:05.084Z,100480.27
2023-01-18T13:05:35.667Z,100480.23
2023-01-18T13:08:10.353Z,100477.33
2023-01-18T13:10:37.988Z,100485.42
2023-01-18T13:13:06.176Z,100476.70
2023-01-18T13:15:38.975Z,100473.80
2023-01-18T13:18:12.190Z,100470.57
2023-01-18T13:20:54.453Z,100474.46
2023-01-18T13:23:25.977Z,100478.60
2023-01-18T13:26:17.793Z,100476.15
2023-01-18T13:28:46.501Z,100475.70
2023-01-18T13:31:13.796Z,100482.91
2023-01-18T13:33:45.111Z,100481.97
2023-01-18T13:36:14.631Z,100475.63
2023-01-18T13:38:52.724Z,100475.95
2023-01-18T13:41:25.188Z,100473.75
2023-01-18T13:43:57.049Z,100485.11
2023-01-18T13:46:25.390Z,100487.39
2023-01-18T13:49:00.985Z,100487.38
2023-01-18T13:51:37.307Z,100489.59
2023-01-18T13:54:05.010Z,100493.29
2023-01-18T13:56:33.558Z,100494.59
2023-01-18T13:59:23.971Z,100504.34
2023-01-18T14:01:51.578Z,100513.42
2023-01-18T14:04:32.181Z,100500.04
2023-01-18T14:07:01.294Z,100510.17
2023-01-18T14:09:43.326Z,100505.98
2023-01-18T14:12:11.689Z,100506.19
2023-01-18T14:14:56.726Z,100508.65
2023-01-18T14:17:25.502Z,100503.92
2023-01-18T14:19:57.512Z,100516.52
2023-01-18T14:22:37.202Z,100511.64
2023-01-18T14:25:42.973Z,100515.71
2023-01-18T14:28:13.668Z,100521.79
2023-01-18T14:30:41.259Z,100528.34
2023-01-18T14:33:11.808Z,100532.80
2023-01-18T14:35:39.225Z,100530.63
2023-01-18T14:38:17.518Z,100533.86
2023-01-18T14:40:47.811Z,100530.28
2023-01-18T14:43:28.327Z,100520.96
2023-01-18T14:46:06.005Z,100534.95
2023-01-18T14:48:34.987Z,100526.42
2023-01-18T14:51:02.687Z,100523.77
2023-01-18T14:53:34.648Z,100545.54
2023-01-18T14:56:35.106Z,100533.17
2023-01-18T14:59:12.079Z,100534.42
2023-01-18T15:01:40.257Z,100540.73
2023-01-18T15:04:19.747Z,100532.09
2023-01-18T15:07:01.673Z,100530.47
2023-01-18T15:09:34.811Z,100541.58
2023-01-18T15:12:04.545Z,100543.54
2023-01-18T15:14:52.093Z,100549.28
2023-01-18T15:17:23.625Z,100550.96
2023-01-18T15:19:53.461Z,100561.97
2023-01-18T15:22:22.215Z,100559.70
2023-01-18T15:24:49.865Z,100556.89
2023-01-18T15:27:19.126Z,100558.98
2023-01-18T15:29:48.062Z,100554.56
2023-01-18T15:32:17.170Z,100564.52
2023-01-18T15:34:45.539Z,100565.55
2023-01-18T15:37:16.444Z,100559.73
2023-01-18T15:40:02.029Z,100563.11
2023-01-18T15:42:32.262Z,100571.27
2023-01-18T15:44:59.687Z,100561.63
2023-01-18T15:47:38.727Z,100567.80
2023-01-18T15:50:15.700Z,100575.13
2023-01-18T15:53:06.422Z,100566.92
2023-01-18T15:55:41.227Z,100575.77
2023-01-18T15:58:19.876Z,100571.48
2023-01-18T16:01:00.504Z,100576.86
2023-01-18T16:03:41.075Z,100572.55
2023-01-18T16:06:17.286Z,100582.45
2023-01-18T16:09:11.828Z,100572.11
2023-01-18T16:11:40.079Z,100580.83
2023-01-18T16:14:22.723Z,100582.99
2023-01-18T16:16:50.133Z,100581.14
2023-01-18T16:19:31.898Z,100581.23
2023-01-18T16:22:01.075Z,100579.61
2023-01-18T16:24:34.585Z,100576.84
2023-01-18T16:27:15.833Z,100579.55
2023-01-18T16:29:50.389Z,100566.53
2023-01-18T16:32:29.323Z,100574.05
2023-01-18T16:34:59.277Z,100566.66
2023-01-18T16:37:26.831Z,100571.55
2023-01-18T16:39:57.103Z,100574.27
2023-01-18T16:42:33.309Z,100575.02
2023-01-18T16:45:07.083Z,100589.38
2023-01-18T16:47:35.376Z,100599.16
2023-01-18T16:50:05.131Z,100599.50
2023-01-18T16:52:32.385Z,100593.91
2023-01-18T16:54:59.774Z,100594.76
2023-01-18T16:57:30.219Z,100598.30
2023-01-18T16:59:57.619Z,100595.95
2023-01-18T17:02:25.342Z,100578.27
2023-01-18T17:04:52.844Z,100573.60
2023-01-18T17:07:20.212Z,100587.55
2023-01-18T17:09:49.055Z,100602.52
2023-01-18T17:12:16.887Z,100612.52
2023-01-18T17:14:44.224Z,100602.39
2023-01-18T17:17:11.522Z,100600.77
2023-01-18T17:19:40.597Z,100603.77
2023-01-18T17:22:07.875Z,100613.20
2023-01-18T17:24:35.528Z,100611.05
2023-01-18T17:27:03.027Z,100616.19
2023-01-18T17:29:30.289Z,100609.50
2023-01-18T17:31:57.945Z,100619.67
2023-01-18T17:34:28.568Z,100624.50
2023-01-18T17:37:00.203Z,100623.57
2023-01-18T17:39:42.722Z,100621.41
2023-01-18T17:42:22.284Z,100625.05
2023-01-18T17:44:50.884Z,100633.04
2023-01-18T17:47:18.129Z,100626.14
2023-01-18T17:49:45.493Z,100626.40
2023-01-18T17:52:12.732Z,100626.61
2023-01-18T17:54:39.988Z,100625.02
2023-01-18T17:57:07.141Z,100625.15
2023-01-18T17:59:34.498Z,100630.62
2023-01-18T18:02:01.800Z,100632.27
2023-01-18T18:04:30.800Z,100623.98
2023-01-18T18:06:58.750Z,100630.44
2023-01-18T18:09:25.983Z,100626.88
2023-01-18T18:11:53.296Z,100619.03
2023-01-18T18:14:20.631Z,100623.75
2023-01-18T18:16:48.053Z,100626.85
2023-01-18T18:19:18.153Z,100616.38
2023-01-18T18:21:46.197Z,100606.90
2023-01-18T18:24:13.554Z,100608.25
2023-01-18T18:26:41.188Z,100604.96
2023-01-18T18:29:09.229Z,100598.02
2023-01-18T18:31:38.783Z,100604.27
2023-01-18T18:34:06.142Z,100595.27
2023-01-18T18:36:33.433Z,100602.92
2023-01-18T18:39:01.835Z,100607.46
2023-01-18T18:41:29.175Z,100611.68
2023-01-18T18:43:57.564Z,100607.92
2023-01-18T18:46:24.938Z,100613.39
2023-01-18T18:48:55.081Z,100605.73
2023-01-18T18:51:22.835Z,100611.77
2023-01-18T18:53:50.199Z,100607.73
2023-01-18T18:56:17.532Z,100596.84
2023-01-18T18:58:46.314Z,100598.41
2023-01-18T19:01:25.175Z,100599.11
2023-01-18T19:03:53.106Z,100621.26
2023-01-18T19:06:21.198Z,100594.17
2023-01-18T19:08:48.481Z,100594.48
2023-01-18T19:11:15.897Z,100596.41
2023-01-18T19:13:43.995Z,100590.48
2023-01-18T19:16:11.734Z,100597.77
2023-01-18T19:18:38.964Z,100598.95
2023-01-18T19:21:06.737Z,100592.23
2023-01-18T19:23:34.688Z,100604.36
2023-01-18T19:26:02.193Z,100616.91
2023-01-18T19:28:29.560Z,100620.75
2023-01-18T19:31:07.544Z,100627.17
2023-01-18T19:33:35.028Z,100617.30
2023-01-18T19:36:13.463Z,100605.02
2023-01-18T19:38:45.872Z,100609.86
2023-01-18T19:41:14.531Z,100609.25
2023-01-18T19:43:43.009Z,100611.61
2023-01-18T19:46:15.437Z,100618.66
2023-01-18T19:48:43.228Z,100601.61
2023-01-18T19:51:21.210Z,100605.29
2023-01-18T19:53:49.378Z,100606.16
2023-01-18T19:56:16.695Z,100606.77
2023-01-18T19:58:44.425Z,100601.14
2023-01-18T20:01:34.171Z,100604.66
2023-01-18T20:04:04.834Z,100597.39
2023-01-18T20:06:32.127Z,100605.38
2023-01-18T20:08:59.893Z,100600.27
2023-01-18T20:11:27.109Z,100593.00
2023-01-18T20:13:54.711Z,100596.77
2023-01-18T20:16:22.409Z,100579.23
2023-01-18T20:18:49.714Z,100578.48
2023-01-18T20:21:18.590Z,100571.52
2023-01-18T20:23:45.930Z,100570.09
2023-01-18T20:26:14.499Z,100578.02
2023-01-18T20:28:42.744Z,100584.17
2023-01-18T20:31:10.468Z,100580.60
2023-01-18T20:33:38.519Z,100587.91
2023-01-18T20:36:07.077Z,100603.12
2023-01-18T20:38:34.403Z,100600.06
2023-01-18T20:41:01.765Z,100600.83
2023-01-18T20:43:29.233Z,100600.55
2023-01-18T20:46:04.189Z,100608.40
2023-01-18T20:48:32.904Z,100611.16
2023-01-18T20:51:00.834Z,100620.52
2023-01-18T20:53:28.404Z,100610.17
2023-01-18T20:55:55.895Z,100617.72
2023-01-18T20:58:23.217Z,100609.81
2023-01-18T21:00:53.738Z,100606.70
2023-01-18T21:03:21.083Z,100595.01
2023-01-18T21:05:48.394Z,100592.17
2023-01-18T21:08:17.562Z,100615.67
2023-01-18T21:10:44.940Z,100621.81
2023-01-18T21:13:12.155Z,100624.89
2023-01-18T21:15:41.895Z,100638.92
2023-01-18T21:18:09.162Z,100631.30
2023-01-18T21:20:36.439Z,100636.95
2023-01-18T21:23:04.135Z,100640.05
2023-01-18T21:25:31.405Z,100623.06
2023-01-18T21:27:58.847Z,100627.52
2023-01-18T21:30:26.408Z,100629.98
2023-01-18T21:32:58.403Z,100609.62
2023-01-18T21:35:30.044Z,100619.44
2023-01-18T21:37:59.900Z,100634.66
2023-01-18T21:40:29.298Z,100632.58
2023-01-18T21:43:15.405Z,100614.38
2023-01-18T21:45:55.327Z,100607.45
2023-01-18T21:48:23.433Z,100606.59
2023-01-18T21:51:09.342Z,100608.77
2023-01-18T21:53:55.434Z,100593.70
2023-01-18T21:56:24.007Z,100591.97
2023-01-18T21:59:01.998Z,100600.93
2023-01-18T22:01:39.192Z,100601.11
2023-01-18T22:04:29.725Z,100606.02
2023-01-18T22:06:59.603Z,100601.08
2023-01-18T22:09:27.545Z,100602.67
2023-01-18T22:11:56.499Z,100609.83
2023-01-18T22:14:23.812Z,100608.28
2023-01-18T22:16:51.012Z,100608.54
2023-01-18T22:19:19.395Z,100606.16
2023-01-18T22:21:47.023Z,100600.33
2023-01-18T22:24:14.778Z,100594.42
2023-01-18T22:26:42.475Z,100612.85
2023-01-18T22:29:09.996Z,100610.23
2023-01-18T22:31:37.612Z,100603.78
2023-01-18T22:34:05.623Z,100599.39
2023-01-18T22:36:33.487Z,100605.39
2023-01-18T22:39:01.219Z,100612.02
2023-01-18T22:41:28.844Z,100615.95
2023-01-18T22:43:56.200Z,100613.36
2023-01-18T22:46:24.185Z,100611.75
2023-01-18T22:48:51.687Z,100611.18
2023-01-18T22:51:23.257Z,100606.33
2023-01-18T22:53:50.979Z,100604.86
2023-01-18T22:56:25.177Z,100605.89
2023-01-18T22:58:52.719Z,100607.39
2023-01-18T23:01:25.594Z,100612.91
2023-01-18T23:03:53.716Z,100618.45
2023-01-18T23:06:21.187Z,100617.26
2023-01-18T23:08:48.664Z,100607.16
2023-01-18T23:11:26.913Z,100604.36
2023-01-18T23:14:14.310Z,100607.01
2023-01-18T23:17:00.903Z,100605.67
2023-01-18T23:19:30.465Z,100605.19
2023-01-18T23:21:58.249Z,100614.86
2023-01-18T23:24:25.684Z,100621.81
2023-01-18T23:26:53.227Z,100625.46
2023-01-18T23:29:20.853Z,100620.64
2023-01-18T23:31:48.082Z,100619.17
2023-01-18T23:34:15.776Z,100625.72
2023-01-18T23:36:42.973Z,100626.71
2023-01-18T23:39:28.953Z,100622.42
2023-01-18T23:42:14.803Z,100627.52
2023-01-18T23:45:00.732Z,100642.71
2023-01-18T23:47:46.751Z,100635.63
2023-01-18T23:50:32.672Z,100639.77
2023-01-18T23:53:19.599Z,100637.80
2023-01-18T23:55:46.858Z,100641.48
2023-01-18T23:58:14.152Z,100647.87
